KMVL/MVL METAR and TAF weather

Enter ICAO airport designator
Station Type Date Time Source
KMVL METAR 2019/09/21 20:54 UTC NOAA

KMVL 212054Z AUTO 02005KT 10SM CLR 26/14 A3016 RMK AO2 SLP214 T02610144 56008


Station Type Date Time Source
KMVL Decoded METAR 2019/09/21 20:54 UTC NOAA

MORRISVILLE STOWE STATE AIRPORT , VT, United States (KMVL) 44-32N 72-37W 223M
Sep 21, 2019 - 04:54 PM EDT / 2019.09.21 2054 UTC
Wind: from the NNE (020 degrees) at 6 MPH (5 KT):0
Visibility: 10 mile(s):0
Sky conditions: clear
Temperature: 79.0 F (26.1 C)
Dew Point: 57.9 F (14.4 C)
Relative Humidity: 48%
Pressure (altimeter): 30.16 in. Hg (1021 hPa)
Pressure tendency: 0.02 inches (0.8 hPa) lower than three hours ago
ob: KMVL 212054Z AUTO 02005KT 10SM CLR 26/14 A3016 RMK AO2 SLP214 T02610144 56008
cycle: 21

Station Type Date Time Source
KMVL TAF UTC NOAA

Error!

Example: see airport list